Lynn, Indiana
Current Conditions -  °F | °C
As of 3:55 PM on Thursday 27 Nov 2014 (Local Time) from KVES Reporting Station
Overcast Overcast  
Wind Chill: 18°   Ceiling: 1800
Heat Index: 30°   Visibility: 10mi
Dew Point: 25°   Wind: 17mph
Humidity: 80%   Direction: 280°W
Pressure: 30.26"   Gusts: 24mph
Location:  40.05°N, 84.94°W
Report Text: KVES 272055Z AUTO 28015G21KT 10SM BKN018 OVC025 M01/M04 A3026 RMK AO2
Loading
Personal Weather Stations






























Interactive Weather Map New forecast layout! Learn more

10-Day Weather Forecast

Advertisements
Track Severe Weather on mobile